createdAt,value
2023-03-02T00:00:57.278Z,97581.91
2023-03-02T00:03:25.680Z,97575.59
2023-03-02T00:05:54.370Z,97570.38
2023-03-02T00:08:23.896Z,97571.28
2023-03-02T00:10:51.947Z,97565.97
2023-03-02T00:13:20.050Z,97560.59
2023-03-02T00:15:48.146Z,97567.69
2023-03-02T00:18:16.283Z,97580.34
2023-03-02T00:20:44.405Z,97570.47
2023-03-02T00:23:12.696Z,97571.50
2023-03-02T00:25:42.516Z,97573.25
2023-03-02T00:28:10.670Z,97575.06
2023-03-02T00:30:39.095Z,97572.38
2023-03-02T00:33:07.131Z,97576.03
2023-03-02T00:35:38.774Z,97568.94
2023-03-02T00:38:07.495Z,97561.75
2023-03-02T00:40:35.790Z,97564.44
2023-03-02T00:43:05.642Z,97561.84
2023-03-02T00:45:33.773Z,97568.06
2023-03-02T00:48:01.997Z,97567.22
2023-03-02T00:50:30.087Z,97559.16
2023-03-02T00:52:58.177Z,97559.16
2023-03-02T00:55:26.243Z,97552.91
2023-03-02T00:57:56.039Z,97558.28
2023-03-02T01:00:31.825Z,97551.16
2023-03-02T01:03:04.689Z,97546.78
2023-03-02T01:05:33.021Z,97544.97
2023-03-02T01:08:01.169Z,97546.78
2023-03-02T01:10:29.411Z,97543.31
2023-03-02T01:12:57.460Z,97527.22
2023-03-02T01:15:25.764Z,97535.25
2023-03-02T01:17:55.273Z,97525.47
2023-03-02T01:20:23.430Z,97532.69
2023-03-02T01:22:51.614Z,97530.00
2023-03-02T01:25:19.970Z,97532.75
2023-03-02T01:27:48.085Z,97523.84
2023-03-02T01:30:16.973Z,97519.31
2023-03-02T01:32:45.044Z,97526.44
2023-03-02T01:35:14.516Z,97529.22
2023-03-02T01:37:42.693Z,97520.31
2023-03-02T01:40:12.844Z,97522.13
2023-03-02T01:42:46.824Z,97520.31
2023-03-02T01:45:53.648Z,97514.16
2023-03-02T01:48:34.195Z,97512.41
2023-03-02T01:51:03.914Z,97515.09
2023-03-02T01:53:32.967Z,97509.84
2023-03-02T01:56:02.381Z,97517.78
2023-03-02T01:58:32.557Z,97512.41
2023-03-02T02:01:00.765Z,97521.44
2023-03-02T02:03:30.101Z,97522.31
2023-03-02T02:06:05.041Z,97512.53
2023-03-02T02:08:33.203Z,97517.03
2023-03-02T02:11:01.323Z,97523.25
2023-03-02T02:13:29.547Z,97520.56
2023-03-02T02:15:57.607Z,97521.56
2023-03-02T02:18:25.742Z,97522.38
2023-03-02T02:20:54.113Z,97510.88
2023-03-02T02:23:28.993Z,97514.53
2023-03-02T02:26:05.749Z,97513.56
2023-03-02T02:28:35.948Z,97515.41
2023-03-02T02:31:08.152Z,97515.41
2023-03-02T02:33:36.390Z,97516.34
2023-03-02T02:36:06.128Z,97515.47
2023-03-02T02:38:34.314Z,97512.78
2023-03-02T02:41:04.715Z,97510.13
2023-03-02T02:43:35.474Z,97519.13
2023-03-02T02:46:03.658Z,97513.78
2023-03-02T02:48:32.460Z,97508.50
2023-03-02T02:51:03.070Z,97512.03
2023-03-02T02:53:34.428Z,97509.44
2023-03-02T02:56:04.045Z,97513.00
2023-03-02T02:58:35.216Z,97513.94
2023-03-02T03:01:03.348Z,97512.13
2023-03-02T03:03:33.773Z,97501.38
2023-03-02T03:06:06.587Z,97512.13
2023-03-02T03:08:57.206Z,97505.06
2023-03-02T03:11:37.536Z,97508.56
2023-03-02T03:14:07.788Z,97503.19
2023-03-02T03:16:39.180Z,97513.09
2023-03-02T03:19:12.456Z,97511.38
2023-03-02T03:21:40.845Z,97506.00
2023-03-02T03:24:09.504Z,97507.81
2023-03-02T03:26:39.371Z,97514.16
2023-03-02T03:29:08.216Z,97510.59
2023-03-02T03:31:36.496Z,97506.09
2023-03-02T03:34:05.340Z,97508.78
2023-03-02T03:36:36.419Z,97511.47
2023-03-02T03:39:05.664Z,97510.59
2023-03-02T03:41:34.437Z,97509.72
2023-03-02T03:44:04.272Z,97509.72
2023-03-02T03:46:35.346Z,97516.94
2023-03-02T03:49:03.899Z,97508.00
2023-03-02T03:51:35.489Z,97511.63
2023-03-02T03:54:06.029Z,97503.59
2023-03-02T03:56:38.672Z,97510.78
2023-03-02T03:59:09.356Z,97502.75
2023-03-02T04:01:43.927Z,97509.94
2023-03-02T04:04:14.096Z,97504.56
2023-03-02T04:06:42.421Z,97503.69
2023-03-02T04:09:12.332Z,97500.13
2023-03-02T04:11:41.724Z,97493.91
2023-03-02T04:14:11.620Z,97501.97
2023-03-02T04:16:40.131Z,97498.41
2023-03-02T04:19:09.689Z,97500.22
2023-03-02T04:21:41.130Z,97498.41
2023-03-02T04:24:10.251Z,97498.41
2023-03-02T04:26:40.234Z,97487.69
2023-03-02T04:29:08.973Z,97494.84
2023-03-02T04:31:40.645Z,97494.00
2023-03-02T04:34:08.917Z,97491.31
2023-03-02T04:36:40.195Z,97495.84
2023-03-02T04:39:11.881Z,97486.91
2023-03-02T04:41:39.984Z,97486.03
2023-03-02T04:44:08.016Z,97489.59
2023-03-02T04:46:36.501Z,97487.84
2023-03-02T04:51:39.744Z,97484.31
2023-03-02T04:54:08.788Z,97481.66
2023-03-02T04:56:37.045Z,97482.59
2023-03-02T04:59:05.134Z,97479.03
2023-03-02T05:01:33.313Z,97479.03
2023-03-02T05:04:02.996Z,97474.53
2023-03-02T05:06:31.586Z,97475.56
2023-03-02T05:09:01.360Z,97473.75
2023-03-02T05:11:29.624Z,97479.13
2023-03-02T05:13:58.992Z,97468.41
2023-03-02T05:16:29.509Z,97465.72
2023-03-02T05:18:57.637Z,97468.41
2023-03-02T05:21:25.857Z,97468.41
2023-03-02T05:23:53.936Z,97471.94
2023-03-02T05:26:23.449Z,97473.66
2023-03-02T05:28:53.947Z,97465.59
2023-03-02T05:31:24.377Z,97475.41
2023-03-02T05:33:52.450Z,97474.53
2023-03-02T05:36:22.920Z,97474.44
2023-03-02T05:38:51.766Z,97472.72
2023-03-02T05:41:19.937Z,97478.00
2023-03-02T05:43:49.508Z,97477.13
2023-03-02T05:46:19.902Z,97477.13
2023-03-02T05:48:48.907Z,97478.00
2023-03-02T05:51:16.992Z,97478.00
2023-03-02T05:53:45.128Z,97487.78
2023-03-02T05:56:13.205Z,97485.94
2023-03-02T05:58:41.352Z,97485.09
2023-03-02T06:01:14.847Z,97477.88
2023-03-02T06:03:43.633Z,97490.25
2023-03-02T06:06:14.247Z,97485.75
2023-03-02T06:08:42.934Z,97481.25
2023-03-02T06:11:11.133Z,97491.13
2023-03-02T06:13:39.325Z,97484.78
2023-03-02T06:16:07.931Z,97486.63
2023-03-02T06:18:40.372Z,97483.94
2023-03-02T06:21:09.596Z,97490.25
2023-03-02T06:23:38.212Z,97492.84
2023-03-02T06:26:09.509Z,97494.59
2023-03-02T06:28:49.686Z,97489.22
2023-03-02T06:31:19.576Z,97483.75
2023-03-02T06:33:49.334Z,97482.81
2023-03-02T06:36:18.446Z,97493.53
2023-03-02T06:38:46.664Z,97489.00
2023-03-02T06:41:15.359Z,97485.38
2023-03-02T06:43:44.009Z,97492.47
2023-03-02T06:46:12.771Z,97495.16
2023-03-02T06:48:41.185Z,97496.03
2023-03-02T06:51:12.679Z,97491.53
2023-03-02T06:53:40.852Z,97491.53
2023-03-02T06:56:09.487Z,97487.03
2023-03-02T06:58:38.728Z,97492.28
2023-03-02T07:01:08.288Z,97489.59
2023-03-02T07:03:37.369Z,97486.81
2023-03-02T07:06:05.935Z,97488.56
2023-03-02T07:08:36.130Z,97488.47
2023-03-02T07:11:06.690Z,97485.78
2023-03-02T07:13:34.906Z,97483.09
2023-03-02T07:16:07.482Z,97486.72
2023-03-02T07:18:35.588Z,97485.88
2023-03-02T07:21:03.636Z,97489.41
2023-03-02T07:23:31.834Z,97485.78
2023-03-02T07:26:01.475Z,97492.97
2023-03-02T07:28:29.708Z,97480.56
2023-03-02T07:30:57.870Z,97486.81
2023-03-02T07:33:26.084Z,97486.81
2023-03-02T07:35:54.355Z,97485.00
2023-03-02T07:38:22.514Z,97493.06
2023-03-02T07:40:50.865Z,97493.06
2023-03-02T07:43:20.654Z,97490.38
2023-03-02T07:45:48.841Z,97496.63
2023-03-02T07:48:16.936Z,97496.63
2023-03-02T07:50:45.063Z,97494.88
2023-03-02T07:53:13.185Z,97488.56
2023-03-02T07:55:41.896Z,97501.97
2023-03-02T07:58:09.924Z,97490.38
2023-03-02T08:00:41.815Z,97484.03
2023-03-02T08:03:10.861Z,97479.63
2023-03-02T08:05:39.116Z,97480.50
2023-03-02T08:08:07.430Z,97483.19
2023-03-02T08:10:35.607Z,97485.88
2023-03-02T08:13:04.256Z,97487.69
2023-03-02T08:15:32.382Z,97486.72
2023-03-02T08:18:01.824Z,97484.91
2023-03-02T08:20:29.999Z,97481.34
2023-03-02T08:22:58.082Z,97483.09
2023-03-02T08:25:26.253Z,97481.34
2023-03-02T08:27:54.400Z,97475.97
2023-03-02T08:30:22.788Z,97486.66
2023-03-02T08:32:51.007Z,97483.09
2023-03-02T08:35:22.256Z,97477.72
2023-03-02T08:37:50.510Z,97477.72
2023-03-02T08:40:18.864Z,97475.03
2023-03-02T08:42:47.060Z,97483.09
2023-03-02T08:45:15.250Z,97484.03
2023-03-02T08:47:43.429Z,97482.22
2023-03-02T08:50:12.527Z,97475.97
2023-03-02T08:52:42.073Z,97477.81
2023-03-02T08:55:11.901Z,97485.88
2023-03-02T08:57:41.728Z,97478.66
2023-03-02T09:00:14.898Z,97481.34
2023-03-02T09:02:43.042Z,97484.03
2023-03-02T09:05:12.305Z,97478.66
2023-03-02T09:07:41.905Z,97475.97
2023-03-02T09:10:11.105Z,97475.13
2023-03-02T09:12:41.302Z,97478.66
2023-03-02T09:15:09.981Z,97477.50
2023-03-02T09:17:38.095Z,97478.06
2023-03-02T09:20:07.344Z,97479.03
2023-03-02T09:22:36.077Z,97479.53
2023-03-02T09:25:05.992Z,97488.03
2023-03-02T09:27:34.177Z,97483.13
2023-03-02T09:30:02.403Z,97479.06
2023-03-02T09:32:30.639Z,97475.81
2023-03-02T09:34:58.796Z,97475.13
2023-03-02T09:37:26.831Z,97468.97
2023-03-02T09:39:57.027Z,97470.63
2023-03-02T09:42:50.644Z,97472.94
2023-03-02T09:45:31.389Z,97472.47
2023-03-02T09:48:06.575Z,97469.38
2023-03-02T09:50:35.512Z,97471.75
2023-03-02T09:53:18.423Z,97468.91
2023-03-02T09:55:46.906Z,97472.25
2023-03-02T09:58:17.566Z,97469.44
2023-03-02T10:00:45.864Z,97460.31
2023-03-02T10:03:17.886Z,97464.84
2023-03-02T10:05:47.409Z,97465.59
2023-03-02T10:08:16.401Z,97462.81
2023-03-02T10:10:45.814Z,97466.28
2023-03-02T10:13:23.362Z,97458.03
2023-03-02T10:15:57.833Z,97458.03
2023-03-02T10:18:29.676Z,97472.22
2023-03-02T10:21:00.318Z,97459.66
2023-03-02T10:23:40.224Z,97465.03
2023-03-02T10:26:20.556Z,97464.94
2023-03-02T10:28:52.134Z,97471.94
2023-03-02T10:31:28.009Z,97464.75
2023-03-02T10:33:56.411Z,97470.03
2023-03-02T10:36:26.328Z,97469.03
2023-03-02T10:38:55.029Z,97467.13
2023-03-02T10:41:26.299Z,97463.50
2023-03-02T10:43:58.667Z,97458.03
2023-03-02T10:46:26.977Z,97457.09
2023-03-02T10:48:56.296Z,97462.38
2023-03-02T10:51:28.453Z,97456.03
2023-03-02T10:54:06.951Z,97457.75
2023-03-02T10:56:35.502Z,97458.53
2023-03-02T10:59:43.827Z,97460.25
2023-03-02T11:02:17.789Z,97460.16
2023-03-02T11:04:46.122Z,97460.06
2023-03-02T11:07:17.723Z,97458.25
2023-03-02T11:09:46.745Z,97461.72
2023-03-02T11:12:16.528Z,97455.38
2023-03-02T11:14:46.115Z,97450.88
2023-03-02T11:17:32.304Z,97449.88
2023-03-02T11:20:00.601Z,97447.97
2023-03-02T11:22:32.769Z,97439.91
2023-03-02T11:25:00.942Z,97444.25
2023-03-02T11:27:29.840Z,97445.97
2023-03-02T11:30:00.845Z,97436.09
2023-03-02T11:32:32.316Z,97434.16
2023-03-02T11:35:02.108Z,97432.34
2023-03-02T11:37:31.595Z,97428.72
2023-03-02T11:40:06.565Z,97436.69
2023-03-02T11:42:35.689Z,97425.81
2023-03-02T11:45:10.336Z,97420.34
2023-03-02T11:47:38.592Z,97419.41
2023-03-02T11:50:07.578Z,97411.34
2023-03-02T11:52:39.427Z,97410.47
2023-03-02T11:55:17.145Z,97415.75
2023-03-02T11:57:48.814Z,97413.81
2023-03-02T12:00:23.821Z,97412.00
2023-03-02T12:03:00.580Z,97406.66
2023-03-02T12:05:30.036Z,97406.53
2023-03-02T12:07:59.549Z,97405.59
2023-03-02T12:10:32.283Z,97403.66
2023-03-02T12:13:03.964Z,97401.75
2023-03-02T12:15:41.738Z,97399.81
2023-03-02T12:18:44.964Z,97397.03
2023-03-02T12:21:14.765Z,97391.66
2023-03-02T12:23:55.662Z,97388.03
2023-03-02T12:26:27.647Z,97379.00
2023-03-02T12:29:01.655Z,97386.94
2023-03-02T12:31:42.802Z,97383.31
2023-03-02T12:34:32.342Z,97385.03
2023-03-02T12:37:02.500Z,97384.13
2023-03-02T12:39:35.789Z,97380.44
2023-03-02T12:42:18.614Z,97382.19
2023-03-02T12:44:49.610Z,97377.69
2023-03-02T12:47:26.219Z,97375.84
2023-03-02T12:49:56.069Z,97370.47
2023-03-02T12:52:28.925Z,97367.72
2023-03-02T12:55:04.902Z,97375.66
2023-03-02T12:57:33.348Z,97372.97
2023-03-02T13:00:02.362Z,97365.78
2023-03-02T13:02:32.664Z,97361.25
2023-03-02T13:05:01.744Z,97361.25
2023-03-02T13:07:31.000Z,97354.94
2023-03-02T13:09:59.618Z,97356.63
2023-03-02T13:12:29.381Z,97351.25
2023-03-02T13:14:58.428Z,97353.00
2023-03-02T13:17:29.680Z,97347.63
2023-03-02T13:19:59.579Z,97346.66
2023-03-02T13:22:28.347Z,97337.75
2023-03-02T13:24:59.195Z,97336.78
2023-03-02T13:27:27.773Z,97332.28
2023-03-02T13:29:56.796Z,97336.66
2023-03-02T13:32:26.276Z,97330.53
2023-03-02T13:34:55.348Z,97327.78
2023-03-02T13:37:35.289Z,97315.19
2023-03-02T13:40:05.624Z,97319.72
2023-03-02T13:42:39.146Z,97322.28
2023-03-02T13:45:22.517Z,97322.28
2023-03-02T13:47:50.887Z,97313.34
2023-03-02T13:50:20.531Z,97311.53
2023-03-02T13:52:50.423Z,97311.53
2023-03-02T13:55:19.188Z,97312.31
2023-03-02T13:57:47.330Z,97305.19
2023-03-02T14:00:17.003Z,97298.09
2023-03-02T14:02:45.179Z,97298.97
2023-03-02T14:05:20.193Z,97300.69
2023-03-02T14:07:49.882Z,97297.03
2023-03-02T14:10:18.795Z,97298.88
2023-03-02T14:12:52.212Z,97302.41
2023-03-02T14:15:20.484Z,97297.88
2023-03-02T14:17:49.470Z,97305.09
2023-03-02T14:20:19.714Z,97297.88
2023-03-02T14:22:50.667Z,97300.56
2023-03-02T14:25:19.647Z,97298.88
2023-03-02T14:27:48.096Z,97289.00
2023-03-02T14:30:18.107Z,97290.81
2023-03-02T14:32:46.248Z,97293.50
2023-03-02T14:35:15.918Z,97282.75
2023-03-02T14:37:44.989Z,97289.00
2023-03-02T14:40:18.712Z,97287.13
2023-03-02T14:42:46.937Z,97284.56
2023-03-02T14:45:15.367Z,97280.06
2023-03-02T14:47:43.500Z,97279.19
2023-03-02T14:50:12.775Z,97275.63
2023-03-02T14:52:42.530Z,97274.78
2023-03-02T14:55:15.935Z,97275.63
2023-03-02T14:57:45.555Z,97270.25
2023-03-02T15:00:15.409Z,97261.38
2023-03-02T15:02:43.729Z,97268.56
2023-03-02T15:05:12.012Z,97265.88
2023-03-02T15:07:41.055Z,97264.06
2023-03-02T15:10:10.057Z,97263.19
2023-03-02T15:12:38.307Z,97263.19
2023-03-02T15:15:09.204Z,97254.25
2023-03-02T15:17:37.464Z,97256.00
2023-03-02T15:20:07.253Z,97262.31
2023-03-02T15:22:35.614Z,97260.59
2023-03-02T15:25:03.790Z,97259.63
2023-03-02T15:27:31.826Z,97262.31
2023-03-02T15:29:59.928Z,97265.00
2023-03-02T15:32:29.508Z,97264.13
2023-03-02T15:34:57.728Z,97264.13
2023-03-02T15:37:25.954Z,97265.97
2023-03-02T15:39:55.552Z,97272.19
2023-03-02T15:42:23.875Z,97265.00
2023-03-02T15:44:52.052Z,97262.44
2023-03-02T15:47:20.216Z,97264.25
2023-03-02T15:49:49.834Z,97249.00
2023-03-02T15:52:19.811Z,97258.88
2023-03-02T15:54:47.995Z,97257.06
2023-03-02T15:57:17.608Z,97250.81
2023-03-02T15:59:46.320Z,97258.00
2023-03-02T16:02:15.243Z,97258.88
2023-03-02T16:04:43.416Z,97255.31
2023-03-02T16:07:13.032Z,97259.84
2023-03-02T16:09:41.236Z,97258.00
2023-03-02T16:12:09.495Z,97255.31
2023-03-02T16:14:37.744Z,97258.00
2023-03-02T16:17:05.881Z,97249.09
2023-03-02T16:19:34.449Z,97259.84
2023-03-02T16:22:02.665Z,97260.78
2023-03-02T16:24:32.269Z,97248.22
2023-03-02T16:27:00.408Z,97247.38
2023-03-02T16:29:28.829Z,97253.59
2023-03-02T16:31:57.133Z,97251.88
2023-03-02T16:34:25.372Z,97258.09
2023-03-02T16:36:53.613Z,97254.56
2023-03-02T16:39:22.182Z,97264.47
2023-03-02T16:41:51.772Z,97262.63
2023-03-02T16:44:19.988Z,97264.47
2023-03-02T16:46:48.268Z,97268.84
2023-03-02T16:49:16.746Z,97267.03
2023-03-02T16:51:44.934Z,97279.59
2023-03-02T16:54:15.675Z,97272.53
2023-03-02T16:56:45.415Z,97278.72
2023-03-02T16:59:15.202Z,97283.28
2023-03-02T17:01:43.375Z,97285.94
2023-03-02T17:04:11.676Z,97285.09
2023-03-02T17:06:41.665Z,97287.78
2023-03-02T17:09:11.337Z,97288.72
2023-03-02T17:11:40.607Z,97288.63
2023-03-02T17:14:08.829Z,97288.72
2023-03-02T17:16:41.574Z,97300.34
2023-03-02T17:19:09.801Z,97296.78
2023-03-02T17:21:37.981Z,97294.09
2023-03-02T17:24:06.405Z,97296.78
2023-03-02T17:26:34.683Z,97304.84
2023-03-02T17:29:02.766Z,97310.22
2023-03-02T17:31:30.926Z,97309.38
2023-03-02T17:34:00.605Z,97306.69
2023-03-02T17:36:28.858Z,97307.53
2023-03-02T17:38:57.377Z,97312.06
2023-03-02T17:41:25.640Z,97306.69
2023-03-02T17:43:53.896Z,97309.38
2023-03-02T17:46:23.504Z,97309.44
2023-03-02T17:48:54.049Z,97307.63
2023-03-02T17:51:23.974Z,97306.75
2023-03-02T17:53:52.429Z,97307.63
2023-03-02T17:56:22.818Z,97307.63
2023-03-02T17:58:53.737Z,97311.28
2023-03-02T18:01:21.914Z,97316.66
2023-03-02T18:03:50.182Z,97316.56
2023-03-02T18:06:20.740Z,97314.81
2023-03-02T18:08:50.989Z,97317.50
2023-03-02T18:11:20.014Z,97308.59
2023-03-02T18:13:48.266Z,97310.44
2023-03-02T18:16:16.509Z,97307.75
2023-03-02T18:18:44.784Z,97312.25
2023-03-02T18:21:12.992Z,97313.13
2023-03-02T18:23:42.096Z,97306.00
2023-03-02T18:26:13.176Z,97311.38
2023-03-02T18:28:42.150Z,97311.38
2023-03-02T18:31:11.347Z,97310.44
2023-03-02T18:33:39.545Z,97309.66
2023-03-02T18:36:08.392Z,97304.28
2023-03-02T18:38:36.727Z,97305.16
2023-03-02T18:41:06.245Z,97306.97
2023-03-02T18:43:37.085Z,97305.16
2023-03-02T18:46:06.404Z,97300.75
2023-03-02T18:48:34.499Z,97300.63
2023-03-02T18:51:02.708Z,97304.28
2023-03-02T18:53:30.953Z,97307.09
2023-03-02T18:55:59.152Z,97312.34
2023-03-02T18:58:27.601Z,97315.03
2023-03-02T19:00:57.539Z,97307.94
2023-03-02T19:03:25.951Z,97305.25
2023-03-02T19:05:57.576Z,97310.63
2023-03-02T19:08:26.390Z,97308.78
2023-03-02T19:10:54.929Z,97310.53
2023-03-02T19:13:23.202Z,97306.97
2023-03-02T19:15:51.351Z,97308.69
2023-03-02T19:18:22.443Z,97311.38
2023-03-02T19:20:51.584Z,97307.75
2023-03-02T19:23:20.020Z,97304.19
2023-03-02T19:25:48.578Z,97311.47
2023-03-02T19:28:17.034Z,97313.31
2023-03-02T19:30:45.178Z,97308.91
2023-03-02T19:33:13.338Z,97314.28
2023-03-02T19:35:43.201Z,97304.41
2023-03-02T19:38:11.852Z,97311.47
2023-03-02T19:40:40.051Z,97314.16
2023-03-02T19:43:08.519Z,97314.06
2023-03-02T19:45:38.130Z,97318.47
2023-03-02T19:48:07.171Z,97315.81
2023-03-02T19:50:35.297Z,97313.97
2023-03-02T19:53:04.978Z,97320.19
2023-03-02T19:55:34.190Z,97316.56
2023-03-02T19:58:02.664Z,97312.91
2023-03-02T20:00:31.426Z,97316.44
2023-03-02T20:02:59.608Z,97314.63
2023-03-02T20:05:28.305Z,97317.31
2023-03-02T20:07:56.707Z,97314.53
2023-03-02T20:10:31.305Z,97315.41
2023-03-02T20:13:00.796Z,97311.72
2023-03-02T20:15:29.107Z,97317.97
2023-03-02T20:17:58.508Z,97323.22
2023-03-02T20:20:27.036Z,97322.41
2023-03-02T20:22:55.177Z,97325.91
2023-03-02T20:25:23.375Z,97322.41
2023-03-02T20:27:53.072Z,97329.47
2023-03-02T20:30:23.383Z,97327.66
2023-03-02T20:32:51.669Z,97327.66
2023-03-02T20:35:20.981Z,97325.84
2023-03-02T20:37:49.171Z,97324.97
2023-03-02T20:40:18.642Z,97327.56
2023-03-02T20:42:46.939Z,97322.19
2023-03-02T20:45:16.800Z,97330.13
2023-03-02T20:47:45.348Z,97326.50
2023-03-02T20:50:16.067Z,97318.44
2023-03-02T20:52:44.317Z,97318.44
2023-03-02T20:55:12.933Z,97318.44
2023-03-02T20:57:41.089Z,97308.56
2023-03-02T21:00:11.906Z,97309.41
2023-03-02T21:02:42.606Z,97312.94
2023-03-02T21:05:10.964Z,97305.75
2023-03-02T21:07:39.147Z,97312.84
2023-03-02T21:10:09.643Z,97308.34
2023-03-02T21:12:37.978Z,97311.03
2023-03-02T21:15:07.137Z,97311.88
2023-03-02T21:17:35.785Z,97302.97
2023-03-02T21:20:06.348Z,97299.31
2023-03-02T21:22:34.778Z,97296.72
2023-03-02T21:25:03.106Z,97299.41
2023-03-02T21:27:31.255Z,97298.47
2023-03-02T21:30:01.406Z,97289.53
2023-03-02T21:32:29.571Z,97294.03
2023-03-02T21:34:57.763Z,97288.66
2023-03-02T21:37:27.422Z,97290.41
2023-03-02T21:39:55.689Z,97287.72
2023-03-02T21:42:23.759Z,97280.59
2023-03-02T21:44:52.052Z,97282.34
2023-03-02T21:47:20.336Z,97277.91
2023-03-02T21:49:48.671Z,97281.56
2023-03-02T21:52:16.847Z,97278.88
2023-03-02T21:54:46.476Z,97278.88
2023-03-02T21:57:14.684Z,97279.84
2023-03-02T21:59:42.970Z,97274.47
2023-03-02T22:02:11.365Z,97273.63
2023-03-02T22:04:39.498Z,97279.84
2023-03-02T22:07:07.865Z,97271.88
2023-03-02T22:09:36.100Z,97273.69
2023-03-02T22:12:13.109Z,97272.88
2023-03-02T22:14:41.356Z,97258.56
2023-03-02T22:17:16.594Z,97264.81
2023-03-02T22:19:44.998Z,97265.75
2023-03-02T22:22:17.511Z,97264.81
2023-03-02T22:24:47.580Z,97264.88
2023-03-02T22:27:23.409Z,97266.75
2023-03-02T22:29:52.399Z,97263.19
2023-03-02T22:32:21.490Z,97261.38
2023-03-02T22:34:50.813Z,97254.25
2023-03-02T22:37:20.245Z,97263.28
2023-03-02T22:39:48.512Z,97251.69
2023-03-02T22:42:17.977Z,97257.06
2023-03-02T22:44:47.970Z,97249.00
2023-03-02T22:47:16.963Z,97249.88
2023-03-02T22:49:45.147Z,97256.19
2023-03-02T22:52:14.381Z,97258.00
2023-03-02T22:54:42.491Z,97248.22
2023-03-02T22:57:26.388Z,97247.38
2023-03-02T22:59:57.445Z,97243.81
2023-03-02T23:02:26.842Z,97245.66
2023-03-02T23:04:55.072Z,97242.09
2023-03-02T23:07:23.379Z,97245.66
2023-03-02T23:09:51.500Z,97240.38
2023-03-02T23:12:20.709Z,97236.84
2023-03-02T23:14:50.110Z,97241.34
2023-03-02T23:17:22.270Z,97235.97
2023-03-02T23:19:51.098Z,97235.09
2023-03-02T23:22:19.327Z,97233.41
2023-03-02T23:24:47.643Z,97232.53
2023-03-02T23:27:15.876Z,97230.78
2023-03-02T23:29:44.091Z,97227.28
2023-03-02T23:32:12.361Z,97229.97
2023-03-02T23:34:41.943Z,97223.72
2023-03-02T23:37:10.052Z,97221.97
2023-03-02T23:39:38.348Z,97221.97
2023-03-02T23:42:06.891Z,97227.34
2023-03-02T23:44:35.272Z,97221.97
2023-03-02T23:47:03.538Z,97219.28
2023-03-02T23:49:31.862Z,97223.88
2023-03-02T23:52:01.626Z,97230.16
2023-03-02T23:54:29.827Z,97219.47
2023-03-02T23:56:58.054Z,97217.66
2023-03-02T23:59:26.245Z,97221.28
